createdAt,value
2023-04-12T05:03:19.188Z,25.00
2023-04-12T05:04:20.131Z,25.00
2023-04-12T05:05:20.133Z,25.00
2023-04-12T05:06:19.186Z,25.00
2023-04-12T05:07:20.177Z,25.00
2023-04-12T05:08:20.233Z,25.00
2023-04-12T05:09:20.264Z,0.00
2023-04-12T05:10:20.305Z,0.00
2023-04-12T05:11:20.338Z,0.00
2023-04-12T05:12:19.334Z,0.00
2023-04-12T05:13:20.344Z,0.00
2023-04-12T05:14:20.463Z,0.00
2023-04-12T05:15:19.332Z,0.00
2023-04-12T05:16:20.369Z,0.00
2023-04-12T05:17:19.343Z,0.00
2023-04-12T05:18:20.390Z,0.00
2023-04-12T05:19:20.438Z,0.00
2023-04-12T05:20:20.450Z,0.00
2023-04-12T05:21:21.040Z,0.00
2023-04-12T05:22:19.674Z,0.00
2023-04-12T05:23:20.719Z,16.96
2023-04-12T05:24:19.741Z,24.75
2023-04-12T05:25:20.761Z,25.00
2023-04-12T05:26:19.785Z,24.49
2023-04-12T05:27:19.831Z,28.44
2023-04-12T05:28:20.858Z,22.90
2023-04-12T05:29:19.852Z,36.26
2023-04-12T05:30:19.876Z,35.61
2023-04-12T05:31:19.954Z,43.17
2023-04-12T05:32:20.997Z,48.39
2023-04-12T05:33:20.012Z,44.27
2023-04-12T05:34:21.021Z,44.60
2023-04-12T05:35:21.080Z,50.61
2023-04-12T05:36:20.060Z,56.58
2023-04-12T05:37:20.079Z,60.66
2023-04-12T05:38:20.045Z,63.30
2023-04-12T05:39:21.045Z,63.16
2023-04-12T05:40:21.040Z,63.99
2023-04-12T05:41:21.071Z,63.29
2023-04-12T05:42:21.098Z,60.62
2023-04-12T05:43:21.761Z,63.18
2023-04-12T05:44:21.243Z,69.59
2023-04-12T05:45:20.273Z,70.50
2023-04-12T05:46:21.397Z,72.73
2023-04-12T05:47:21.398Z,72.78
2023-04-12T05:48:20.443Z,129.14
2023-04-12T05:49:21.618Z,105.15
2023-04-12T05:50:20.533Z,92.89
2023-04-12T05:51:30.699Z,87.15
2023-04-12T05:52:21.776Z,87.39
2023-04-12T05:53:21.630Z,88.06
2023-04-12T05:54:20.557Z,88.26
2023-04-12T05:55:21.556Z,89.85
2023-04-12T05:56:21.567Z,94.50
2023-04-12T05:57:21.546Z,93.93
2023-04-12T05:58:21.536Z,90.11
2023-04-12T05:59:20.575Z,93.15
2023-04-12T06:00:20.525Z,98.86
2023-04-12T06:01:20.509Z,102.96
2023-04-12T06:02:20.848Z,105.22
2023-04-12T06:03:20.681Z,108.29
2023-04-12T06:04:21.679Z,103.25
2023-04-12T06:05:21.481Z,105.97
2023-04-12T06:06:21.458Z,106.49
2023-04-12T06:07:21.505Z,107.56
2023-04-12T06:08:21.466Z,108.93
2023-04-12T06:09:21.452Z,105.44
2023-04-12T06:10:21.448Z,110.25
2023-04-12T06:11:21.453Z,110.34
2023-04-12T06:12:20.419Z,111.93
2023-04-12T06:13:21.415Z,108.82
2023-04-12T06:14:21.415Z,116.57
2023-04-12T06:15:20.448Z,111.73
2023-04-12T06:16:20.513Z,116.16
2023-04-12T06:17:21.420Z,114.85
2023-04-12T06:18:21.390Z,119.80
2023-04-12T06:19:21.377Z,118.33
2023-04-12T06:20:21.368Z,105.88
2023-04-12T06:21:21.348Z,101.08
2023-04-12T06:22:21.362Z,99.40
2023-04-12T06:23:21.369Z,100.29
2023-04-12T06:24:20.341Z,103.36
2023-04-12T06:25:20.329Z,104.58
2023-04-12T06:26:21.329Z,104.28
2023-04-12T06:27:21.325Z,102.63
2023-04-12T06:28:21.314Z,107.34
2023-04-12T06:29:21.360Z,106.40
2023-04-12T06:30:21.385Z,107.37
2023-04-12T06:31:20.475Z,107.90
2023-04-12T06:32:21.494Z,106.88
2023-04-12T06:33:21.705Z,108.83
2023-04-12T06:34:21.578Z,106.65
2023-04-12T06:35:21.606Z,110.78
2023-04-12T06:36:21.591Z,106.61
2023-04-12T06:37:20.622Z,111.73
2023-04-12T06:38:20.697Z,110.55
2023-04-12T06:39:20.737Z,112.80
2023-04-12T06:40:21.772Z,112.06
2023-04-12T06:41:21.834Z,114.00
2023-04-12T06:42:21.905Z,113.26
2023-04-12T06:43:20.958Z,112.02
2023-04-12T06:44:22.026Z,110.54
2023-04-12T06:45:22.183Z,111.52
2023-04-12T06:46:22.176Z,112.96
2023-04-12T06:47:22.361Z,115.79
2023-04-12T06:48:22.261Z,114.24
2023-04-12T06:49:22.608Z,116.62
2023-04-12T06:50:21.381Z,115.99
2023-04-12T06:51:21.424Z,115.43
2023-04-12T06:52:21.783Z,119.24
2023-04-12T06:53:22.539Z,121.70
2023-04-12T06:54:22.602Z,123.32
2023-04-12T06:55:22.696Z,121.66
2023-04-12T06:56:22.706Z,123.82
2023-04-12T06:57:22.798Z,124.49
2023-04-12T06:58:22.833Z,126.60
2023-04-12T06:59:22.895Z,125.57
2023-04-12T07:00:21.954Z,125.77
2023-04-12T07:01:23.061Z,125.31
2023-04-12T07:02:23.100Z,124.04
2023-04-12T07:03:23.089Z,124.86
2023-04-12T07:04:23.113Z,124.60
2023-04-12T07:05:22.014Z,124.76
2023-04-12T07:06:25.660Z,124.65
2023-04-12T07:07:23.027Z,124.76
2023-04-12T07:08:21.992Z,124.83
2023-04-12T07:09:22.991Z,125.20
2023-04-12T07:10:22.975Z,126.25
2023-04-12T07:11:23.472Z,125.08
2023-04-12T07:12:22.999Z,125.79
2023-04-12T07:13:22.942Z,125.96
2023-04-12T07:14:21.960Z,123.82
2023-04-12T07:15:22.945Z,124.47
2023-04-12T07:16:22.934Z,123.69
2023-04-12T07:17:22.111Z,124.20
2023-04-12T07:18:22.911Z,124.18
2023-04-12T07:19:22.913Z,122.77
2023-04-12T07:20:22.899Z,124.91
2023-04-12T07:21:22.041Z,122.20
2023-04-12T07:22:22.911Z,122.92
2023-04-12T07:23:21.884Z,121.74
2023-04-12T07:24:21.880Z,121.83
2023-04-12T07:25:22.907Z,119.86
2023-04-12T07:26:22.871Z,119.57
2023-04-12T07:27:22.877Z,121.08
2023-04-12T07:28:22.828Z,119.00
2023-04-12T07:29:21.843Z,118.39
2023-04-12T07:30:22.823Z,118.49
2023-04-12T07:31:22.817Z,117.19
2023-04-12T07:32:23.012Z,116.50
2023-04-12T07:33:22.989Z,117.01
2023-04-12T07:34:23.069Z,117.50
2023-04-12T07:35:22.786Z,116.49
2023-04-12T07:36:21.826Z,117.84
2023-04-12T07:37:22.773Z,115.31
2023-04-12T07:38:22.792Z,117.31
2023-04-12T07:39:22.814Z,116.81
2023-04-12T07:40:22.767Z,116.83
2023-04-12T07:41:22.747Z,114.65
2023-04-12T07:42:22.763Z,113.93
2023-04-12T07:43:22.810Z,116.38
2023-04-12T07:44:22.774Z,115.35
2023-04-12T07:45:22.781Z,114.17
2023-04-12T07:46:22.874Z,111.92
2023-04-12T07:47:22.867Z,111.18
2023-04-12T07:48:21.698Z,109.07
2023-04-12T07:49:22.695Z,109.90
2023-04-12T07:50:22.678Z,71.84
2023-04-12T07:51:22.677Z,96.44
2023-04-12T07:52:22.858Z,98.77
2023-04-12T07:53:22.656Z,99.32
2023-04-12T07:54:23.550Z,95.69
2023-04-12T07:55:21.638Z,91.15
2023-04-12T07:56:21.638Z,94.00
2023-04-12T07:57:22.630Z,93.90
2023-04-12T07:58:22.626Z,94.52
2023-04-12T07:59:22.634Z,91.09
2023-04-12T08:00:21.602Z,95.28
2023-04-12T08:01:22.623Z,96.35
2023-04-12T08:02:21.780Z,97.52
2023-04-12T08:03:23.774Z,98.88
2023-04-12T08:04:22.983Z,97.91
2023-04-12T08:05:22.911Z,101.69
2023-04-12T08:06:21.886Z,102.51
2023-04-12T08:07:23.014Z,101.82
2023-04-12T08:08:23.172Z,107.12
2023-04-12T08:09:23.067Z,106.42
2023-04-12T08:10:23.138Z,106.57
2023-04-12T08:11:23.186Z,104.48
2023-04-12T08:12:23.306Z,105.37
2023-04-12T08:13:22.295Z,106.27
2023-04-12T08:14:22.345Z,106.55
2023-04-12T08:15:22.520Z,107.96
2023-04-12T08:16:23.507Z,111.20
2023-04-12T08:17:22.501Z,111.74
2023-04-12T08:18:23.538Z,109.94
2023-04-12T08:19:23.563Z,113.69
2023-04-12T08:20:23.639Z,114.31
2023-04-12T08:21:23.653Z,113.07
2023-04-12T08:22:22.690Z,115.06
2023-04-12T08:23:23.714Z,116.47
2023-04-12T08:24:23.745Z,119.67
2023-04-12T08:25:23.810Z,119.70
2023-04-12T08:26:22.814Z,118.41
2023-04-12T08:27:23.848Z,120.54
2023-04-12T08:28:23.899Z,122.78
2023-04-12T08:29:23.932Z,122.70
2023-04-12T08:30:23.956Z,123.73
2023-04-12T08:31:23.371Z,124.74
2023-04-12T08:32:23.096Z,126.93
2023-04-12T08:33:23.048Z,126.40
2023-04-12T08:34:24.068Z,125.84
2023-04-12T08:35:23.158Z,128.25
2023-04-12T08:36:23.135Z,128.66
2023-04-12T08:37:24.172Z,127.10
2023-04-12T08:38:37.214Z,125.81
2023-04-12T08:39:24.197Z,126.07
2023-04-12T08:40:24.192Z,126.45
2023-04-12T08:41:23.185Z,127.73
2023-04-12T08:42:24.319Z,127.58
2023-04-12T08:43:24.150Z,131.32
2023-04-12T08:44:24.152Z,132.97
2023-04-12T08:45:23.139Z,90.40
2023-04-12T08:46:24.158Z,37.28
2023-04-12T08:47:23.596Z,34.82
2023-04-12T08:48:24.130Z,53.67
2023-04-12T08:49:24.137Z,60.45
2023-04-12T08:50:24.102Z,66.24
2023-04-12T08:51:24.127Z,25.00
2023-04-12T08:52:24.101Z,25.00
2023-04-12T08:53:23.091Z,25.00
2023-04-12T08:54:24.084Z,25.21
2023-04-12T08:55:24.114Z,26.69
2023-04-12T08:56:24.057Z,24.59
2023-04-12T08:57:24.328Z,29.99
2023-04-12T08:58:24.061Z,26.82
2023-04-12T08:59:24.061Z,25.00
2023-04-12T09:00:23.042Z,85.10
2023-04-12T09:01:23.048Z,76.28
2023-04-12T09:02:24.311Z,45.36
2023-04-12T09:03:23.326Z,25.00
2023-04-12T09:04:23.150Z,25.00
2023-04-12T09:05:24.098Z,22.96
2023-04-12T09:06:24.033Z,25.00
2023-04-12T09:07:22.973Z,24.90
2023-04-12T09:08:23.987Z,25.26
2023-04-12T09:09:22.966Z,25.82
2023-04-12T09:10:23.996Z,25.37
2023-04-12T09:11:23.952Z,25.00
2023-04-12T09:12:23.948Z,27.20
2023-04-12T09:13:23.951Z,32.87
2023-04-12T09:14:23.926Z,34.75
2023-04-12T09:15:23.926Z,36.30
2023-04-12T09:16:23.936Z,54.62
2023-04-12T09:17:23.957Z,78.16
2023-04-12T09:18:23.917Z,102.80
2023-04-12T09:19:23.918Z,97.78
2023-04-12T09:20:22.992Z,92.71
2023-04-12T09:21:23.969Z,106.21
2023-04-12T09:22:22.953Z,113.90
2023-04-12T09:23:24.021Z,130.08
2023-04-12T09:24:23.994Z,132.72
2023-04-12T09:25:23.974Z,142.48
2023-04-12T09:26:23.988Z,139.63
2023-04-12T09:27:23.032Z,150.76
2023-04-12T09:28:23.177Z,153.05
2023-04-12T09:29:24.236Z,128.79
2023-04-12T09:30:24.146Z,117.52
2023-04-12T09:31:24.196Z,118.44
2023-04-12T09:32:24.267Z,110.07
2023-04-12T09:33:23.190Z,100.36
2023-04-12T09:34:26.513Z,90.80
2023-04-12T09:35:24.273Z,90.59
2023-04-12T09:36:23.213Z,82.23
2023-04-12T09:37:24.177Z,70.74
2023-04-12T09:38:24.168Z,67.52
2023-04-12T09:39:24.167Z,66.03
2023-04-12T09:40:24.135Z,52.21
2023-04-12T09:41:26.717Z,47.57
2023-04-12T09:42:33.279Z,47.72
2023-04-12T09:43:24.140Z,47.82
2023-04-12T09:44:24.115Z,47.86
2023-04-12T09:45:24.232Z,58.84
2023-04-12T09:46:24.242Z,64.54
2023-04-12T09:47:23.151Z,97.95
2023-04-12T09:48:24.365Z,83.29
2023-04-12T09:49:24.080Z,92.92
2023-04-12T09:50:24.067Z,130.05
2023-04-12T09:51:24.104Z,137.58
2023-04-12T09:52:23.058Z,131.86
2023-04-12T09:53:24.358Z,141.55
2023-04-12T09:54:23.030Z,139.70
2023-04-12T09:55:23.070Z,112.04
2023-04-12T09:56:23.057Z,156.65
2023-04-12T09:57:24.043Z,178.18
2023-04-12T09:58:24.101Z,150.53
2023-04-12T09:59:24.080Z,150.40
2023-04-12T10:00:23.001Z,147.51
2023-04-12T10:01:24.133Z,258.80
2023-04-12T10:02:24.134Z,250.29
2023-04-12T10:03:24.228Z,231.20
2023-04-12T10:04:23.126Z,219.46
2023-04-12T10:05:24.220Z,216.48
2023-04-12T10:06:23.965Z,210.99
2023-04-12T10:07:23.957Z,215.24
2023-04-12T10:08:23.976Z,217.03
2023-04-12T10:09:23.906Z,214.89
2023-04-12T10:10:23.900Z,213.17
2023-04-12T10:11:22.905Z,215.58
2023-04-12T10:12:24.107Z,214.64
2023-04-12T10:13:22.937Z,216.62
2023-04-12T10:14:22.937Z,216.59
2023-04-12T10:15:23.879Z,220.21
2023-04-12T10:16:23.919Z,220.14
2023-04-12T10:17:23.892Z,204.61
2023-04-12T10:18:22.872Z,207.64
2023-04-12T10:19:23.915Z,209.40
2023-04-12T10:20:27.101Z,209.53
2023-04-12T10:21:23.900Z,209.83
2023-04-12T10:22:22.923Z,210.47
2023-04-12T10:23:23.946Z,211.67
2023-04-12T10:24:23.900Z,214.05
2023-04-12T10:25:22.906Z,220.01
2023-04-12T10:26:23.898Z,217.84
2023-04-12T10:27:22.895Z,218.76
2023-04-12T10:28:23.883Z,220.95
2023-04-12T10:29:22.871Z,220.97
2023-04-12T10:30:23.850Z,222.65
2023-04-12T10:31:23.987Z,220.46
2023-04-12T10:32:23.921Z,222.98
2023-04-12T10:33:22.917Z,224.59
2023-04-12T10:34:23.823Z,228.04
2023-04-12T10:35:23.793Z,227.44
2023-04-12T10:36:23.874Z,227.42
2023-04-12T10:37:23.797Z,230.07
2023-04-12T10:38:23.815Z,230.83
2023-04-12T10:39:23.810Z,236.65
2023-04-12T10:40:23.799Z,234.79
2023-04-12T10:41:22.819Z,236.91
2023-04-12T10:42:23.807Z,237.13
2023-04-12T10:43:23.854Z,238.22
2023-04-12T10:44:22.740Z,238.73
2023-04-12T10:45:22.777Z,242.11
2023-04-12T10:46:22.775Z,243.84
2023-04-12T10:47:23.817Z,240.57
2023-04-12T10:48:23.933Z,242.72
2023-04-12T10:49:22.737Z,245.08
2023-04-12T10:50:23.772Z,247.95
2023-04-12T10:51:23.754Z,248.61
2023-04-12T10:52:22.745Z,248.93
2023-04-12T10:53:22.802Z,248.57
2023-04-12T10:54:23.791Z,249.00
2023-04-12T10:55:23.860Z,249.57
2023-04-12T10:56:22.816Z,247.34
2023-04-12T10:57:22.821Z,245.56
2023-04-12T10:58:23.932Z,245.73
2023-04-12T10:59:27.083Z,243.78
2023-04-12T11:00:23.823Z,243.96
2023-04-12T11:01:23.946Z,243.79
2023-04-12T11:02:23.977Z,241.78
2023-04-12T11:03:23.901Z,241.55
2023-04-12T11:04:24.018Z,240.33
2023-04-12T11:05:22.871Z,237.32
2023-04-12T11:06:27.435Z,238.67
2023-04-12T11:07:23.735Z,238.82
2023-04-12T11:08:23.758Z,236.72
2023-04-12T11:09:23.730Z,234.37
2023-04-12T11:10:23.745Z,229.91
2023-04-12T11:11:23.884Z,230.75
2023-04-12T11:12:23.809Z,226.39
2023-04-12T11:13:23.877Z,226.35
2023-04-12T11:14:23.918Z,224.45
2023-04-12T11:15:23.995Z,220.48
2023-04-12T11:16:24.081Z,219.05
2023-04-12T11:17:23.977Z,219.85
2023-04-12T11:18:24.175Z,219.18
2023-04-12T11:19:24.208Z,219.21
2023-04-12T11:20:24.289Z,219.47
2023-04-12T11:21:24.343Z,219.09
2023-04-12T11:22:24.414Z,218.88
2023-04-12T11:23:23.448Z,217.85
2023-04-12T11:24:24.497Z,215.47
2023-04-12T11:25:24.572Z,216.46
2023-04-12T11:26:24.613Z,215.85
2023-04-12T11:27:24.772Z,216.98
2023-04-12T11:28:29.720Z,217.17
2023-04-12T11:29:24.824Z,217.28
2023-04-12T11:30:23.826Z,217.21
2023-04-12T11:31:23.733Z,213.06
2023-04-12T11:32:23.859Z,209.56
2023-04-12T11:33:24.694Z,209.07
2023-04-12T11:34:24.705Z,212.81
2023-04-12T11:35:24.672Z,211.23
2023-04-12T11:36:24.660Z,207.94
2023-04-12T11:37:23.686Z,204.69
2023-04-12T11:38:23.664Z,202.64
2023-04-12T11:39:23.636Z,196.80
2023-04-12T11:40:24.654Z,200.85
2023-04-12T11:41:24.633Z,199.41
2023-04-12T11:42:24.617Z,204.02
2023-04-12T11:43:23.633Z,204.53
2023-04-12T11:44:24.615Z,202.88
2023-04-12T11:45:24.595Z,205.05
2023-04-12T11:46:24.646Z,204.48
2023-04-12T11:47:24.635Z,206.76
2023-04-12T11:48:23.596Z,205.99
2023-04-12T11:49:24.561Z,207.17
2023-04-12T11:50:23.562Z,206.28
2023-04-12T11:51:23.546Z,206.84
2023-04-12T11:52:24.573Z,206.05
2023-04-12T11:53:24.607Z,207.49
2023-04-12T11:54:24.623Z,205.23
2023-04-12T11:55:24.656Z,207.76
2023-04-12T11:56:23.668Z,206.02
2023-04-12T11:57:23.656Z,204.16
2023-04-12T11:58:23.700Z,203.96
2023-04-12T11:59:24.697Z,202.21
2023-04-12T12:00:23.696Z,203.94
2023-04-12T12:01:25.406Z,202.60
2023-04-12T12:02:25.839Z,201.88
2023-04-12T12:03:23.851Z,202.39
2023-04-12T12:04:24.878Z,202.80
2023-04-12T12:05:24.940Z,203.26
2023-04-12T12:06:23.959Z,203.38
2023-04-12T12:07:25.086Z,203.30
2023-04-12T12:08:23.925Z,203.98
2023-04-12T12:09:24.878Z,202.34
2023-04-12T12:10:40.023Z,201.89
2023-04-12T12:11:24.888Z,203.37
2023-04-12T12:12:24.858Z,198.78
2023-04-12T12:13:23.899Z,196.32
2023-04-12T12:14:24.858Z,197.77
2023-04-12T12:15:24.983Z,196.03
2023-04-12T12:16:25.050Z,196.52
2023-04-12T12:17:24.871Z,196.95
2023-04-12T12:18:23.851Z,195.17
2023-04-12T12:19:24.822Z,196.50
2023-04-12T12:20:23.861Z,195.12
2023-04-12T12:21:24.830Z,196.54
2023-04-12T12:22:24.824Z,199.50
2023-04-12T12:23:24.801Z,197.76
2023-04-12T12:24:24.786Z,199.85
2023-04-12T12:25:24.757Z,203.52
2023-04-12T12:26:24.780Z,201.15
2023-04-12T12:27:23.786Z,199.42
2023-04-12T12:28:23.772Z,203.96
2023-04-12T12:29:24.735Z,200.96
2023-04-12T12:30:24.731Z,202.57
2023-04-12T12:31:24.790Z,200.97
2023-04-12T12:32:23.859Z,202.50
2023-04-12T12:33:35.075Z,201.97
2023-04-12T12:34:24.737Z,202.26
2023-04-12T12:35:24.699Z,202.47
2023-04-12T12:36:23.685Z,202.75
2023-04-12T12:37:23.672Z,203.20
2023-04-12T12:38:31.421Z,202.65
2023-04-12T12:39:24.683Z,202.18
2023-04-12T12:40:23.667Z,201.63
2023-04-12T12:41:24.656Z,201.90
2023-04-12T12:42:23.651Z,199.96
2023-04-12T12:43:24.627Z,198.98
2023-04-12T12:44:23.631Z,199.45
2023-04-12T12:45:24.647Z,201.62
2023-04-12T12:46:23.653Z,197.03
2023-04-12T12:47:24.661Z,193.40
2023-04-12T12:48:23.634Z,196.67
2023-04-12T12:49:23.615Z,196.40
2023-04-12T12:50:24.897Z,195.14
2023-04-12T12:51:24.574Z,196.50
2023-04-12T12:52:23.572Z,196.36
2023-04-12T12:53:24.766Z,194.61
2023-04-12T12:54:39.413Z,196.01
2023-04-12T12:55:24.563Z,196.29
2023-04-12T12:56:24.552Z,196.67
2023-04-12T12:57:24.537Z,196.93
2023-04-12T12:58:24.540Z,198.12
2023-04-12T12:59:25.976Z,199.07
2023-04-12T13:00:24.666Z,196.26
2023-04-12T13:01:24.694Z,196.44
2023-04-12T13:02:23.759Z,197.04
2023-04-12T13:03:24.846Z,196.78
2023-04-12T13:04:23.773Z,197.09
2023-04-12T13:05:23.791Z,196.80
2023-04-12T13:06:23.680Z,195.94
2023-04-12T13:07:24.702Z,195.32
2023-04-12T13:08:23.700Z,197.23
2023-04-12T13:09:24.735Z,196.61
2023-04-12T13:10:23.756Z,198.31
2023-04-12T13:11:23.701Z,197.97
2023-04-12T13:12:23.704Z,198.24
2023-04-12T13:13:24.713Z,198.75
2023-04-12T13:14:24.703Z,196.28
2023-04-12T13:15:24.790Z,197.78
2023-04-12T13:16:26.264Z,196.60
2023-04-12T13:17:24.693Z,197.14
2023-04-12T13:18:24.676Z,196.11
2023-04-12T13:19:24.747Z,198.03
2023-04-12T13:20:23.663Z,194.73
2023-04-12T13:21:24.679Z,193.74
2023-04-12T13:22:24.651Z,193.28
2023-04-12T13:23:24.655Z,192.21
2023-04-12T13:24:24.655Z,189.97
2023-04-12T13:25:24.659Z,188.06
2023-04-12T13:26:23.639Z,189.21
2023-04-12T13:27:24.626Z,192.26
2023-04-12T13:28:24.635Z,190.91
2023-04-12T13:29:23.631Z,192.10
2023-04-12T13:30:23.593Z,188.10
2023-04-12T13:31:24.593Z,192.32
2023-04-12T13:32:24.606Z,192.19
2023-04-12T13:33:24.730Z,188.97
2023-04-12T13:34:24.576Z,189.39
2023-04-12T13:35:24.603Z,192.36
2023-04-12T13:36:23.575Z,190.47
2023-04-12T13:37:24.538Z,190.45
2023-04-12T13:38:24.542Z,193.61
2023-04-12T13:39:24.531Z,191.57
2023-04-12T13:40:23.524Z,194.02
2023-04-12T13:41:23.533Z,194.00
2023-04-12T13:42:24.506Z,194.91
2023-04-12T13:43:23.497Z,196.59
2023-04-12T13:44:23.503Z,195.90
2023-04-12T13:45:24.501Z,194.58
2023-04-12T13:46:23.545Z,198.12
2023-04-12T13:47:24.513Z,195.61
2023-04-12T13:48:24.527Z,199.78
2023-04-12T13:49:23.476Z,198.61
2023-04-12T13:50:23.448Z,202.80
2023-04-12T13:51:24.539Z,207.00
2023-04-12T13:52:24.448Z,256.16
2023-04-12T13:53:24.442Z,221.80
2023-04-12T13:54:24.438Z,214.19
2023-04-12T13:55:24.419Z,219.19
2023-04-12T13:56:24.430Z,222.06
2023-04-12T13:57:24.396Z,223.62
2023-04-12T13:58:23.406Z,227.93
2023-04-12T13:59:24.580Z,229.92
2023-04-12T14:00:24.376Z,229.03
2023-04-12T14:01:23.455Z,230.03
2023-04-12T14:02:23.421Z,231.37
2023-04-12T14:03:24.382Z,226.17
2023-04-12T14:04:23.452Z,226.83
2023-04-12T14:05:24.350Z,226.92
2023-04-12T14:06:23.348Z,225.88
2023-04-12T14:07:24.395Z,226.21
2023-04-12T14:08:23.331Z,224.81
2023-04-12T14:09:24.343Z,223.15
2023-04-12T14:10:24.319Z,224.41
2023-04-12T14:11:24.302Z,225.11
2023-04-12T14:12:24.355Z,223.02
2023-04-12T14:13:23.409Z,220.84
2023-04-12T14:14:24.508Z,219.02
2023-04-12T14:15:24.538Z,219.34
2023-04-12T14:16:23.592Z,223.91
2023-04-12T14:17:23.801Z,219.76
2023-04-12T14:18:23.816Z,220.23
2023-04-12T14:19:23.773Z,221.04
2023-04-12T14:20:24.838Z,221.28
2023-04-12T14:21:24.891Z,218.32
2023-04-12T14:22:24.959Z,220.01
2023-04-12T14:23:25.062Z,219.17
2023-04-12T14:24:25.086Z,218.00
2023-04-12T14:25:25.141Z,217.00
2023-04-12T14:26:24.179Z,218.13
2023-04-12T14:27:25.255Z,217.66
2023-04-12T14:28:25.305Z,216.03
2023-04-12T14:29:25.402Z,215.59
2023-04-12T14:30:25.427Z,215.77
2023-04-12T14:31:25.604Z,215.52
2023-04-12T14:32:25.629Z,212.49
2023-04-12T14:33:24.622Z,213.06
2023-04-12T14:34:25.767Z,214.50
2023-04-12T14:35:25.741Z,211.42
2023-04-12T14:36:24.806Z,214.72
2023-04-12T14:37:24.838Z,214.90
2023-04-12T14:38:25.994Z,214.10
2023-04-12T14:39:24.993Z,211.66
2023-04-12T14:40:25.041Z,214.29
2023-04-12T14:41:26.088Z,214.72
2023-04-12T14:42:26.174Z,215.45
2023-04-12T14:43:26.206Z,215.08
2023-04-12T14:44:26.582Z,216.17
2023-04-12T14:45:25.339Z,216.77
2023-04-12T14:46:26.445Z,215.39
2023-04-12T14:47:25.490Z,216.98
2023-04-12T14:48:25.523Z,217.77
2023-04-12T14:49:25.592Z,214.69
2023-04-12T14:50:25.642Z,214.54
2023-04-12T14:51:25.669Z,213.17
2023-04-12T14:52:26.718Z,210.77
2023-04-12T14:53:26.776Z,208.00
2023-04-12T14:54:26.811Z,208.22
2023-04-12T14:55:26.912Z,207.63
2023-04-12T14:56:28.001Z,207.99
2023-04-12T14:57:26.904Z,211.83
2023-04-12T14:58:25.912Z,209.92
2023-04-12T14:59:26.936Z,205.85
2023-04-12T15:00:25.887Z,205.79
2023-04-12T15:01:26.889Z,205.75
2023-04-12T15:02:26.054Z,205.84
2023-04-12T15:03:26.986Z,206.34
2023-04-12T15:04:26.006Z,204.75
2023-04-12T15:05:26.959Z,203.70
2023-04-12T15:06:25.858Z,204.89
2023-04-12T15:07:25.872Z,205.44
2023-04-12T15:08:25.836Z,205.39
2023-04-12T15:09:26.837Z,202.41
2023-04-12T15:10:26.817Z,201.06
2023-04-12T15:11:27.587Z,202.01
2023-04-12T15:12:26.803Z,201.87
2023-04-12T15:13:32.398Z,202.93
2023-04-12T15:14:26.814Z,203.28
2023-04-12T15:15:25.777Z,203.79
2023-04-12T15:16:26.789Z,203.67
2023-04-12T15:17:26.778Z,203.55
2023-04-12T15:18:26.750Z,204.61
2023-04-12T15:19:25.754Z,205.67
2023-04-12T15:20:26.766Z,205.59
2023-04-12T15:21:25.748Z,204.63
2023-04-12T15:22:26.729Z,206.40
2023-04-12T15:23:26.755Z,204.48
2023-04-12T15:24:26.706Z,203.05
2023-04-12T15:25:25.707Z,204.16
2023-04-12T15:26:26.696Z,205.24
2023-04-12T15:27:26.768Z,203.17
2023-04-12T15:28:26.701Z,205.89
2023-04-12T15:29:25.796Z,203.88
